sensor_id;sensor_type;location;lat;lon;timestamp;P1;durP1;ratioP1;P2;durP2;ratioP2
7887;SDS011;3989;48.810;9.208;2023-09-12T00:00:40;15.00;;;9.55;;
7887;SDS011;3989;48.810;9.208;2023-09-12T00:03:09;12.43;;;10.23;;
7887;SDS011;3989;48.810;9.208;2023-09-12T00:05:35;12.35;;;10.57;;
7887;SDS011;3989;48.810;9.208;2023-09-12T00:08:02;11.13;;;10.05;;
7887;SDS011;3989;48.810;9.208;2023-09-12T00:10:29;11.52;;;10.00;;
7887;SDS011;3989;48.810;9.208;2023-09-12T00:12:56;12.35;;;10.95;;
7887;SDS011;3989;48.810;9.208;2023-09-12T00:15:25;13.60;;;10.63;;
7887;SDS011;3989;48.810;9.208;2023-09-12T00:17:52;15.65;;;11.60;;
7887;SDS011;3989;48.810;9.208;2023-09-12T00:20:20;15.18;;;11.05;;
7887;SDS011;3989;48.810;9.208;2023-09-12T00:23:01;15.55;;;11.52;;
7887;SDS011;3989;48.810;9.208;2023-09-12T00:25:29;18.40;;;11.95;;
7887;SDS011;3989;48.810;9.208;2023-09-12T00:27:56;14.63;;;10.93;;
7887;SDS011;3989;48.810;9.208;2023-09-12T00:30:22;13.27;;;10.57;;
7887;SDS011;3989;48.810;9.208;2023-09-12T00:32:49;17.60;;;12.10;;
7887;SDS011;3989;48.810;9.208;2023-09-12T00:35:15;12.40;;;11.15;;
7887;SDS011;3989;48.810;9.208;2023-09-12T00:37:43;15.40;;;11.05;;
7887;SDS011;3989;48.810;9.208;2023-09-12T00:40:10;13.48;;;10.50;;
7887;SDS011;3989;48.810;9.208;2023-09-12T00:42:37;15.82;;;10.40;;
7887;SDS011;3989;48.810;9.208;2023-09-12T00:45:04;17.83;;;10.88;;
7887;SDS011;3989;48.810;9.208;2023-09-12T00:47:30;17.00;;;11.07;;
7887;SDS011;3989;48.810;9.208;2023-09-12T00:49:57;11.63;;;9.93;;
7887;SDS011;3989;48.810;9.208;2023-09-12T00:52:25;14.70;;;10.95;;
7887;SDS011;3989;48.810;9.208;2023-09-12T00:54:54;11.82;;;10.40;;
7887;SDS011;3989;48.810;9.208;2023-09-12T00:57:21;12.93;;;10.52;;
7887;SDS011;3989;48.810;9.208;2023-09-12T00:59:49;13.13;;;10.27;;
7887;SDS011;3989;48.810;9.208;2023-09-12T01:02:15;14.13;;;10.77;;
7887;SDS011;3989;48.810;9.208;2023-09-12T01:08:04;14.27;;;10.70;;
7887;SDS011;3989;48.810;9.208;2023-09-12T01:10:32;11.98;;;10.80;;
7887;SDS011;3989;48.810;9.208;2023-09-12T01:12:59;13.40;;;11.02;;
7887;SDS011;3989;48.810;9.208;2023-09-12T01:15:26;14.23;;;10.05;;
7887;SDS011;3989;48.810;9.208;2023-09-12T01:17:52;12.77;;;10.02;;
7887;SDS011;3989;48.810;9.208;2023-09-12T01:20:21;15.82;;;10.27;;
7887;SDS011;3989;48.810;9.208;2023-09-12T01:26:02;12.00;;;10.73;;
7887;SDS011;3989;48.810;9.208;2023-09-12T01:28:46;12.98;;;11.10;;
7887;SDS011;3989;48.810;9.208;2023-09-12T01:31:15;13.15;;;11.60;;
7887;SDS011;3989;48.810;9.208;2023-09-12T01:33:43;12.73;;;11.38;;
7887;SDS011;3989;48.810;9.208;2023-09-12T01:36:10;17.95;;;11.95;;
7887;SDS011;3989;48.810;9.208;2023-09-12T01:38:37;14.50;;;11.43;;
7887;SDS011;3989;48.810;9.208;2023-09-12T01:41:03;15.73;;;12.07;;
7887;SDS011;3989;48.810;9.208;2023-09-12T01:43:30;14.32;;;11.23;;
7887;SDS011;3989;48.810;9.208;2023-09-12T01:45:59;11.75;;;10.55;;
7887;SDS011;3989;48.810;9.208;2023-09-12T01:48:29;16.25;;;10.93;;
7887;SDS011;3989;48.810;9.208;2023-09-12T01:51:00;16.23;;;11.73;;
7887;SDS011;3989;48.810;9.208;2023-09-12T01:53:27;16.00;;;11.63;;
7887;SDS011;3989;48.810;9.208;2023-09-12T01:55:55;13.88;;;11.23;;
7887;SDS011;3989;48.810;9.208;2023-09-12T01:58:24;15.65;;;12.52;;
7887;SDS011;3989;48.810;9.208;2023-09-12T02:00:51;14.57;;;11.93;;
7887;SDS011;3989;48.810;9.208;2023-09-12T02:03:20;12.73;;;11.23;;
7887;SDS011;3989;48.810;9.208;2023-09-12T02:05:46;15.63;;;11.05;;
7887;SDS011;3989;48.810;9.208;2023-09-12T02:08:13;11.93;;;10.55;;
7887;SDS011;3989;48.810;9.208;2023-09-12T02:10:40;15.30;;;11.32;;
7887;SDS011;3989;48.810;9.208;2023-09-12T02:13:07;11.27;;;10.25;;
7887;SDS011;3989;48.810;9.208;2023-09-12T02:15:33;12.15;;;10.05;;
7887;SDS011;3989;48.810;9.208;2023-09-12T02:18:00;12.02;;;10.20;;
7887;SDS011;3989;48.810;9.208;2023-09-12T02:20:29;13.93;;;10.93;;
7887;SDS011;3989;48.810;9.208;2023-09-12T02:22:56;14.23;;;11.02;;
7887;SDS011;3989;48.810;9.208;2023-09-12T02:25:22;12.38;;;10.63;;
7887;SDS011;3989;48.810;9.208;2023-09-12T02:27:49;13.95;;;11.68;;
7887;SDS011;3989;48.810;9.208;2023-09-12T02:30:16;18.27;;;12.57;;
7887;SDS011;3989;48.810;9.208;2023-09-12T02:32:42;14.80;;;13.17;;
7887;SDS011;3989;48.810;9.208;2023-09-12T02:35:09;13.10;;;11.77;;
7887;SDS011;3989;48.810;9.208;2023-09-12T02:37:37;15.35;;;13.35;;
7887;SDS011;3989;48.810;9.208;2023-09-12T02:40:04;15.13;;;13.02;;
7887;SDS011;3989;48.810;9.208;2023-09-12T02:42:31;17.08;;;13.45;;
7887;SDS011;3989;48.810;9.208;2023-09-12T02:44:58;16.70;;;12.57;;
7887;SDS011;3989;48.810;9.208;2023-09-12T02:47:25;17.02;;;12.88;;
7887;SDS011;3989;48.810;9.208;2023-09-12T02:49:52;15.40;;;12.95;;
7887;SDS011;3989;48.810;9.208;2023-09-12T02:52:18;13.50;;;11.90;;
7887;SDS011;3989;48.810;9.208;2023-09-12T02:54:46;16.70;;;11.57;;
7887;SDS011;3989;48.810;9.208;2023-09-12T02:57:13;18.63;;;11.93;;
7887;SDS011;3989;48.810;9.208;2023-09-12T02:59:40;14.52;;;11.48;;
7887;SDS011;3989;48.810;9.208;2023-09-12T03:02:06;14.80;;;11.23;;
7887;SDS011;3989;48.810;9.208;2023-09-12T03:04:34;16.58;;;12.18;;
7887;SDS011;3989;48.810;9.208;2023-09-12T03:07:01;15.45;;;11.38;;
7887;SDS011;3989;48.810;9.208;2023-09-12T03:09:28;11.88;;;10.45;;
7887;SDS011;3989;48.810;9.208;2023-09-12T03:11:56;14.05;;;10.73;;
7887;SDS011;3989;48.810;9.208;2023-09-12T03:14:23;13.30;;;10.32;;
7887;SDS011;3989;48.810;9.208;2023-09-12T03:16:50;12.88;;;10.45;;
7887;SDS011;3989;48.810;9.208;2023-09-12T03:19:16;12.13;;;10.63;;
7887;SDS011;3989;48.810;9.208;2023-09-12T03:21:43;11.15;;;10.07;;
7887;SDS011;3989;48.810;9.208;2023-09-12T03:24:09;11.25;;;10.15;;
7887;SDS011;3989;48.810;9.208;2023-09-12T03:26:36;11.40;;;10.40;;
7887;SDS011;3989;48.810;9.208;2023-09-12T03:29:04;13.30;;;10.60;;
7887;SDS011;3989;48.810;9.208;2023-09-12T03:31:31;11.30;;;10.18;;
7887;SDS011;3989;48.810;9.208;2023-09-12T03:33:58;11.95;;;10.55;;
7887;SDS011;3989;48.810;9.208;2023-09-12T03:36:24;11.45;;;10.13;;
7887;SDS011;3989;48.810;9.208;2023-09-12T03:38:51;12.57;;;10.18;;
7887;SDS011;3989;48.810;9.208;2023-09-12T03:41:18;12.52;;;10.88;;
7887;SDS011;3989;48.810;9.208;2023-09-12T03:43:50;12.32;;;11.05;;
7887;SDS011;3989;48.810;9.208;2023-09-12T03:46:36;15.55;;;10.75;;
7887;SDS011;3989;48.810;9.208;2023-09-12T03:49:05;12.90;;;10.57;;
7887;SDS011;3989;48.810;9.208;2023-09-12T03:51:33;14.18;;;10.48;;
7887;SDS011;3989;48.810;9.208;2023-09-12T03:54:03;13.38;;;9.90;;
7887;SDS011;3989;48.810;9.208;2023-09-12T03:56:29;11.77;;;9.80;;
7887;SDS011;3989;48.810;9.208;2023-09-12T03:58:56;11.60;;;9.95;;
7887;SDS011;3989;48.810;9.208;2023-09-12T04:01:24;13.65;;;10.77;;
7887;SDS011;3989;48.810;9.208;2023-09-12T04:03:53;12.52;;;10.35;;
7887;SDS011;3989;48.810;9.208;2023-09-12T04:06:20;12.73;;;10.77;;
7887;SDS011;3989;48.810;9.208;2023-09-12T04:08:53;14.07;;;9.93;;
7887;SDS011;3989;48.810;9.208;2023-09-12T04:11:20;12.23;;;10.52;;
7887;SDS011;3989;48.810;9.208;2023-09-12T04:13:46;11.50;;;10.27;;
7887;SDS011;3989;48.810;9.208;2023-09-12T04:16:13;11.82;;;10.60;;
7887;SDS011;3989;48.810;9.208;2023-09-12T04:18:41;11.43;;;10.32;;
7887;SDS011;3989;48.810;9.208;2023-09-12T04:21:10;14.60;;;10.82;;
7887;SDS011;3989;48.810;9.208;2023-09-12T04:23:37;11.50;;;10.38;;
7887;SDS011;3989;48.810;9.208;2023-09-12T04:26:03;15.55;;;11.05;;
7887;SDS011;3989;48.810;9.208;2023-09-12T04:28:30;12.45;;;10.27;;
7887;SDS011;3989;48.810;9.208;2023-09-12T04:31:03;13.20;;;10.75;;
7887;SDS011;3989;48.810;9.208;2023-09-12T04:33:29;12.77;;;10.07;;
7887;SDS011;3989;48.810;9.208;2023-09-12T04:35:57;11.23;;;10.00;;
7887;SDS011;3989;48.810;9.208;2023-09-12T04:38:26;11.13;;;9.77;;
7887;SDS011;3989;48.810;9.208;2023-09-12T04:40:53;11.82;;;9.80;;
7887;SDS011;3989;48.810;9.208;2023-09-12T04:43:20;11.43;;;9.13;;
7887;SDS011;3989;48.810;9.208;2023-09-12T04:45:47;14.20;;;10.57;;
7887;SDS011;3989;48.810;9.208;2023-09-12T04:48:14;10.82;;;9.52;;
7887;SDS011;3989;48.810;9.208;2023-09-12T04:50:41;14.63;;;10.10;;
7887;SDS011;3989;48.810;9.208;2023-09-12T04:53:07;13.80;;;11.07;;
7887;SDS011;3989;48.810;9.208;2023-09-12T04:55:36;15.30;;;9.43;;
7887;SDS011;3989;48.810;9.208;2023-09-12T04:58:03;14.10;;;10.30;;
7887;SDS011;3989;48.810;9.208;2023-09-12T05:00:31;10.43;;;9.38;;
7887;SDS011;3989;48.810;9.208;2023-09-12T05:02:58;12.63;;;10.15;;
7887;SDS011;3989;48.810;9.208;2023-09-12T05:05:24;11.07;;;9.93;;
7887;SDS011;3989;48.810;9.208;2023-09-12T05:07:51;11.30;;;9.20;;
7887;SDS011;3989;48.810;9.208;2023-09-12T05:10:18;11.40;;;9.13;;
7887;SDS011;3989;48.810;9.208;2023-09-12T05:12:46;13.93;;;9.75;;
7887;SDS011;3989;48.810;9.208;2023-09-12T05:15:13;11.23;;;10.07;;
7887;SDS011;3989;48.810;9.208;2023-09-12T05:17:39;12.70;;;10.00;;
7887;SDS011;3989;48.810;9.208;2023-09-12T05:20:07;12.43;;;10.38;;
7887;SDS011;3989;48.810;9.208;2023-09-12T05:22:34;16.10;;;9.43;;
7887;SDS011;3989;48.810;9.208;2023-09-12T05:25:01;10.30;;;9.23;;
7887;SDS011;3989;48.810;9.208;2023-09-12T05:27:28;11.82;;;9.80;;
7887;SDS011;3989;48.810;9.208;2023-09-12T05:29:56;13.70;;;10.25;;
7887;SDS011;3989;48.810;9.208;2023-09-12T05:32:23;10.55;;;9.55;;
7887;SDS011;3989;48.810;9.208;2023-09-12T05:34:51;10.73;;;9.32;;
7887;SDS011;3989;48.810;9.208;2023-09-12T05:37:18;16.13;;;9.40;;
7887;SDS011;3989;48.810;9.208;2023-09-12T05:39:46;13.90;;;9.57;;
7887;SDS011;3989;48.810;9.208;2023-09-12T05:42:14;10.23;;;8.73;;
7887;SDS011;3989;48.810;9.208;2023-09-12T05:44:45;9.68;;;8.68;;
7887;SDS011;3989;48.810;9.208;2023-09-12T05:47:14;14.57;;;9.07;;
7887;SDS011;3989;48.810;9.208;2023-09-12T05:49:44;9.57;;;8.57;;
7887;SDS011;3989;48.810;9.208;2023-09-12T05:52:11;11.13;;;9.32;;
7887;SDS011;3989;48.810;9.208;2023-09-12T05:54:38;10.52;;;9.52;;
7887;SDS011;3989;48.810;9.208;2023-09-12T05:57:06;15.07;;;9.68;;
7887;SDS011;3989;48.810;9.208;2023-09-12T05:59:34;10.80;;;9.70;;
7887;SDS011;3989;48.810;9.208;2023-09-12T06:02:02;14.85;;;9.60;;
7887;SDS011;3989;48.810;9.208;2023-09-12T06:04:32;10.70;;;9.50;;
7887;SDS011;3989;48.810;9.208;2023-09-12T06:07:02;11.25;;;9.52;;
7887;SDS011;3989;48.810;9.208;2023-09-12T06:09:33;12.60;;;9.88;;
7887;SDS011;3989;48.810;9.208;2023-09-12T06:14:49;21.63;;;10.02;;
7887;SDS011;3989;48.810;9.208;2023-09-12T06:17:18;14.43;;;9.90;;
7887;SDS011;3989;48.810;9.208;2023-09-12T06:19:46;11.25;;;9.65;;
7887;SDS011;3989;48.810;9.208;2023-09-12T06:22:14;11.95;;;9.50;;
7887;SDS011;3989;48.810;9.208;2023-09-12T06:24:42;10.52;;;9.50;;
7887;SDS011;3989;48.810;9.208;2023-09-12T06:27:09;14.00;;;10.00;;
7887;SDS011;3989;48.810;9.208;2023-09-12T06:29:37;12.65;;;9.00;;
7887;SDS011;3989;48.810;9.208;2023-09-12T06:32:04;17.20;;;10.88;;
7887;SDS011;3989;48.810;9.208;2023-09-12T06:34:31;15.18;;;11.05;;
7887;SDS011;3989;48.810;9.208;2023-09-12T06:36:59;13.55;;;10.80;;
7887;SDS011;3989;48.810;9.208;2023-09-12T06:39:26;17.77;;;10.38;;
7887;SDS011;3989;48.810;9.208;2023-09-12T06:41:52;14.55;;;10.65;;
7887;SDS011;3989;48.810;9.208;2023-09-12T06:44:19;17.05;;;10.68;;
7887;SDS011;3989;48.810;9.208;2023-09-12T06:46:46;14.50;;;10.63;;
7887;SDS011;3989;48.810;9.208;2023-09-12T06:49:12;14.68;;;11.15;;
7887;SDS011;3989;48.810;9.208;2023-09-12T06:51:39;13.98;;;10.68;;
7887;SDS011;3989;48.810;9.208;2023-09-12T06:54:07;17.52;;;11.15;;
7887;SDS011;3989;48.810;9.208;2023-09-12T06:56:34;11.88;;;10.50;;
7887;SDS011;3989;48.810;9.208;2023-09-12T06:59:02;16.42;;;11.32;;
7887;SDS011;3989;48.810;9.208;2023-09-12T07:01:29;13.52;;;11.95;;
7887;SDS011;3989;48.810;9.208;2023-09-12T07:03:56;13.32;;;11.40;;
7887;SDS011;3989;48.810;9.208;2023-09-12T07:06:22;15.63;;;10.82;;
7887;SDS011;3989;48.810;9.208;2023-09-12T07:08:49;13.88;;;10.63;;
7887;SDS011;3989;48.810;9.208;2023-09-12T07:11:17;14.70;;;10.55;;
7887;SDS011;3989;48.810;9.208;2023-09-12T07:13:44;13.65;;;10.73;;
7887;SDS011;3989;48.810;9.208;2023-09-12T07:16:11;16.35;;;10.07;;
7887;SDS011;3989;48.810;9.208;2023-09-12T07:18:38;13.30;;;11.70;;
7887;SDS011;3989;48.810;9.208;2023-09-12T07:21:05;16.40;;;11.45;;
7887;SDS011;3989;48.810;9.208;2023-09-12T07:23:33;17.83;;;10.20;;
7887;SDS011;3989;48.810;9.208;2023-09-12T07:26:00;16.02;;;10.57;;
7887;SDS011;3989;48.810;9.208;2023-09-12T07:28:29;12.63;;;10.07;;
7887;SDS011;3989;48.810;9.208;2023-09-12T07:30:57;11.80;;;10.43;;
7887;SDS011;3989;48.810;9.208;2023-09-12T07:33:24;13.75;;;10.20;;
7887;SDS011;3989;48.810;9.208;2023-09-12T07:35:51;16.08;;;11.30;;
7887;SDS011;3989;48.810;9.208;2023-09-12T07:38:18;12.80;;;11.23;;
7887;SDS011;3989;48.810;9.208;2023-09-12T07:40:46;18.40;;;12.35;;
7887;SDS011;3989;48.810;9.208;2023-09-12T07:43:13;15.48;;;11.65;;
7887;SDS011;3989;48.810;9.208;2023-09-12T07:45:41;15.82;;;11.30;;
7887;SDS011;3989;48.810;9.208;2023-09-12T07:48:09;14.07;;;10.88;;
7887;SDS011;3989;48.810;9.208;2023-09-12T07:50:37;18.42;;;11.40;;
7887;SDS011;3989;48.810;9.208;2023-09-12T07:53:04;14.52;;;10.73;;
7887;SDS011;3989;48.810;9.208;2023-09-12T07:55:31;16.17;;;10.73;;
7887;SDS011;3989;48.810;9.208;2023-09-12T07:58:01;15.88;;;10.20;;
7887;SDS011;3989;48.810;9.208;2023-09-12T08:00:27;14.00;;;9.82;;
7887;SDS011;3989;48.810;9.208;2023-09-12T08:02:55;16.55;;;10.75;;
7887;SDS011;3989;48.810;9.208;2023-09-12T08:05:22;18.40;;;11.10;;
7887;SDS011;3989;48.810;9.208;2023-09-12T08:07:49;17.48;;;11.38;;
7887;SDS011;3989;48.810;9.208;2023-09-12T08:10:15;15.05;;;10.35;;
7887;SDS011;3989;48.810;9.208;2023-09-12T08:12:42;12.50;;;9.40;;
7887;SDS011;3989;48.810;9.208;2023-09-12T08:15:09;19.17;;;10.85;;
7887;SDS011;3989;48.810;9.208;2023-09-12T08:17:36;16.02;;;10.80;;
7887;SDS011;3989;48.810;9.208;2023-09-12T08:20:09;14.02;;;10.40;;
7887;SDS011;3989;48.810;9.208;2023-09-12T08:22:36;17.73;;;11.02;;
7887;SDS011;3989;48.810;9.208;2023-09-12T08:25:03;14.27;;;10.93;;
7887;SDS011;3989;48.810;9.208;2023-09-12T08:27:30;16.30;;;10.55;;
7887;SDS011;3989;48.810;9.208;2023-09-12T08:29:57;13.77;;;10.57;;
7887;SDS011;3989;48.810;9.208;2023-09-12T08:32:24;15.20;;;10.85;;
7887;SDS011;3989;48.810;9.208;2023-09-12T08:34:51;12.93;;;11.02;;
7887;SDS011;3989;48.810;9.208;2023-09-12T08:37:19;12.02;;;10.38;;
7887;SDS011;3989;48.810;9.208;2023-09-12T08:39:45;17.45;;;10.40;;
7887;SDS011;3989;48.810;9.208;2023-09-12T08:42:13;13.32;;;10.60;;
7887;SDS011;3989;48.810;9.208;2023-09-12T08:44:41;11.52;;;10.32;;
7887;SDS011;3989;48.810;9.208;2023-09-12T08:47:08;13.23;;;10.38;;
7887;SDS011;3989;48.810;9.208;2023-09-12T08:49:36;11.95;;;10.65;;
7887;SDS011;3989;48.810;9.208;2023-09-12T08:52:07;12.82;;;10.90;;
7887;SDS011;3989;48.810;9.208;2023-09-12T08:54:35;13.52;;;10.18;;
7887;SDS011;3989;48.810;9.208;2023-09-12T08:57:04;13.15;;;9.65;;
7887;SDS011;3989;48.810;9.208;2023-09-12T08:59:32;14.52;;;10.95;;
7887;SDS011;3989;48.810;9.208;2023-09-12T09:02:05;11.63;;;9.57;;
7887;SDS011;3989;48.810;9.208;2023-09-12T09:04:38;15.77;;;10.48;;
7887;SDS011;3989;48.810;9.208;2023-09-12T09:07:06;16.60;;;10.40;;
7887;SDS011;3989;48.810;9.208;2023-09-12T09:09:37;14.75;;;10.50;;
7887;SDS011;3989;48.810;9.208;2023-09-12T09:12:12;13.98;;;10.25;;
7887;SDS011;3989;48.810;9.208;2023-09-12T09:14:43;16.73;;;10.75;;
7887;SDS011;3989;48.810;9.208;2023-09-12T09:17:18;13.40;;;10.75;;
7887;SDS011;3989;48.810;9.208;2023-09-12T09:19:52;10.32;;;9.43;;
7887;SDS011;3989;48.810;9.208;2023-09-12T09:22:46;11.20;;;9.82;;
7887;SDS011;3989;48.810;9.208;2023-09-12T09:25:33;10.98;;;9.73;;
7887;SDS011;3989;48.810;9.208;2023-09-12T09:28:15;9.80;;;8.70;;
7887;SDS011;3989;48.810;9.208;2023-09-12T09:30:44;10.18;;;8.95;;
7887;SDS011;3989;48.810;9.208;2023-09-12T09:33:23;10.40;;;9.40;;
7887;SDS011;3989;48.810;9.208;2023-09-12T09:36:22;9.90;;;8.73;;
7887;SDS011;3989;48.810;9.208;2023-09-12T09:41:35;10.32;;;9.25;;
7887;SDS011;3989;48.810;9.208;2023-09-12T09:44:39;9.00;;;8.10;;
7887;SDS011;3989;48.810;9.208;2023-09-12T09:47:14;9.73;;;8.75;;
7887;SDS011;3989;48.810;9.208;2023-09-12T09:49:54;9.48;;;8.68;;
7887;SDS011;3989;48.810;9.208;2023-09-12T09:52:31;9.38;;;7.97;;
7887;SDS011;3989;48.810;9.208;2023-09-12T09:55:01;9.35;;;8.57;;
7887;SDS011;3989;48.810;9.208;2023-09-12T09:57:37;9.55;;;8.55;;
7887;SDS011;3989;48.810;9.208;2023-09-12T10:00:07;9.65;;;8.07;;
7887;SDS011;3989;48.810;9.208;2023-09-12T10:02:40;8.90;;;7.93;;
7887;SDS011;3989;48.810;9.208;2023-09-12T10:05:10;10.25;;;8.65;;
7887;SDS011;3989;48.810;9.208;2023-09-12T10:07:50;9.60;;;7.85;;
7887;SDS011;3989;48.810;9.208;2023-09-12T10:10:23;9.43;;;8.65;;
7887;SDS011;3989;48.810;9.208;2023-09-12T10:13:09;9.70;;;8.20;;
7887;SDS011;3989;48.810;9.208;2023-09-12T10:15:56;8.45;;;7.60;;
7887;SDS011;3989;48.810;9.208;2023-09-12T10:18:43;11.52;;;10.40;;
7887;SDS011;3989;48.810;9.208;2023-09-12T10:21:18;12.48;;;10.23;;
7887;SDS011;3989;48.810;9.208;2023-09-12T10:23:57;30.20;;;25.48;;
7887;SDS011;3989;48.810;9.208;2023-09-12T10:26:50;8.13;;;7.40;;
7887;SDS011;3989;48.810;9.208;2023-09-12T10:29:21;11.13;;;8.75;;
7887;SDS011;3989;48.810;9.208;2023-09-12T10:31:51;8.77;;;7.53;;
7887;SDS011;3989;48.810;9.208;2023-09-12T10:34:20;8.43;;;7.63;;
7887;SDS011;3989;48.810;9.208;2023-09-12T10:36:53;8.32;;;7.50;;
7887;SDS011;3989;48.810;9.208;2023-09-12T10:39:40;9.23;;;8.02;;
7887;SDS011;3989;48.810;9.208;2023-09-12T10:42:25;9.82;;;8.02;;
7887;SDS011;3989;48.810;9.208;2023-09-12T10:45:03;8.93;;;8.10;;
7887;SDS011;3989;48.810;9.208;2023-09-12T10:47:38;9.60;;;7.53;;
7887;SDS011;3989;48.810;9.208;2023-09-12T10:50:19;9.93;;;8.02;;
7887;SDS011;3989;48.810;9.208;2023-09-12T10:52:51;8.80;;;7.90;;
7887;SDS011;3989;48.810;9.208;2023-09-12T10:55:20;10.38;;;7.57;;
7887;SDS011;3989;48.810;9.208;2023-09-12T10:58:03;9.38;;;8.48;;
7887;SDS011;3989;48.810;9.208;2023-09-12T11:00:43;8.80;;;7.97;;
7887;SDS011;3989;48.810;9.208;2023-09-12T11:03:55;7.45;;;6.72;;
7887;SDS011;3989;48.810;9.208;2023-09-12T11:06:52;8.73;;;7.88;;
7887;SDS011;3989;48.810;9.208;2023-09-12T11:09:23;7.28;;;6.63;;
7887;SDS011;3989;48.810;9.208;2023-09-12T11:12:09;9.27;;;6.68;;
7887;SDS011;3989;48.810;9.208;2023-09-12T11:15:09;7.30;;;6.70;;
7887;SDS011;3989;48.810;9.208;2023-09-12T11:18:03;10.50;;;7.65;;
7887;SDS011;3989;48.810;9.208;2023-09-12T11:20:50;7.80;;;6.78;;
7887;SDS011;3989;48.810;9.208;2023-09-12T11:23:35;9.27;;;6.55;;
7887;SDS011;3989;48.810;9.208;2023-09-12T11:26:04;7.07;;;6.47;;
7887;SDS011;3989;48.810;9.208;2023-09-12T11:28:42;7.57;;;6.55;;
7887;SDS011;3989;48.810;9.208;2023-09-12T11:31:11;9.25;;;7.05;;
7887;SDS011;3989;48.810;9.208;2023-09-12T11:33:43;8.43;;;6.80;;
7887;SDS011;3989;48.810;9.208;2023-09-12T11:36:14;8.85;;;7.03;;
7887;SDS011;3989;48.810;9.208;2023-09-12T11:38:48;8.13;;;6.70;;
7887;SDS011;3989;48.810;9.208;2023-09-12T11:44:09;9.30;;;6.20;;
7887;SDS011;3989;48.810;9.208;2023-09-12T11:46:38;7.28;;;6.68;;
7887;SDS011;3989;48.810;9.208;2023-09-12T11:49:11;11.13;;;7.13;;
7887;SDS011;3989;48.810;9.208;2023-09-12T11:51:45;8.35;;;6.90;;
7887;SDS011;3989;48.810;9.208;2023-09-12T11:56:53;7.00;;;6.40;;
7887;SDS011;3989;48.810;9.208;2023-09-12T11:59:21;8.10;;;5.95;;
7887;SDS011;3989;48.810;9.208;2023-09-12T12:01:48;7.07;;;6.43;;
7887;SDS011;3989;48.810;9.208;2023-09-12T12:04:16;6.80;;;6.30;;
7887;SDS011;3989;48.810;9.208;2023-09-12T12:06:46;10.50;;;6.28;;
7887;SDS011;3989;48.810;9.208;2023-09-12T12:09:12;8.38;;;5.80;;
7887;SDS011;3989;48.810;9.208;2023-09-12T12:11:39;7.80;;;6.18;;
7887;SDS011;3989;48.810;9.208;2023-09-12T12:14:11;6.68;;;6.18;;
7887;SDS011;3989;48.810;9.208;2023-09-12T12:16:40;6.68;;;6.20;;
7887;SDS011;3989;48.810;9.208;2023-09-12T12:19:07;7.47;;;6.38;;
7887;SDS011;3989;48.810;9.208;2023-09-12T12:21:35;7.13;;;5.53;;
7887;SDS011;3989;48.810;9.208;2023-09-12T12:24:02;11.05;;;5.95;;
7887;SDS011;3989;48.810;9.208;2023-09-12T12:26:30;6.85;;;5.65;;
7887;SDS011;3989;48.810;9.208;2023-09-12T12:28:58;6.38;;;5.32;;
7887;SDS011;3989;48.810;9.208;2023-09-12T12:31:25;9.52;;;6.60;;
7887;SDS011;3989;48.810;9.208;2023-09-12T12:33:53;7.97;;;5.70;;
7887;SDS011;3989;48.810;9.208;2023-09-12T12:36:20;6.97;;;5.82;;
7887;SDS011;3989;48.810;9.208;2023-09-12T12:38:49;6.82;;;6.07;;
7887;SDS011;3989;48.810;9.208;2023-09-12T12:41:16;8.30;;;6.07;;
7887;SDS011;3989;48.810;9.208;2023-09-12T12:43:51;6.80;;;6.10;;
7887;SDS011;3989;48.810;9.208;2023-09-12T12:46:20;5.93;;;5.30;;
7887;SDS011;3989;48.810;9.208;2023-09-12T12:48:47;7.60;;;6.40;;
7887;SDS011;3989;48.810;9.208;2023-09-12T12:51:15;6.30;;;5.82;;
7887;SDS011;3989;48.810;9.208;2023-09-12T12:53:43;6.28;;;5.38;;
7887;SDS011;3989;48.810;9.208;2023-09-12T12:56:13;6.28;;;5.68;;
7887;SDS011;3989;48.810;9.208;2023-09-12T12:58:48;5.60;;;5.10;;
7887;SDS011;3989;48.810;9.208;2023-09-12T13:01:15;6.47;;;5.75;;
7887;SDS011;3989;48.810;9.208;2023-09-12T13:03:42;5.90;;;5.28;;
7887;SDS011;3989;48.810;9.208;2023-09-12T13:06:09;6.30;;;5.38;;
7887;SDS011;3989;48.810;9.208;2023-09-12T13:08:39;5.75;;;5.15;;
7887;SDS011;3989;48.810;9.208;2023-09-12T13:11:07;6.78;;;5.75;;
7887;SDS011;3989;48.810;9.208;2023-09-12T13:13:35;6.25;;;5.75;;
7887;SDS011;3989;48.810;9.208;2023-09-12T13:16:04;7.70;;;5.75;;
7887;SDS011;3989;48.810;9.208;2023-09-12T13:18:31;9.73;;;6.72;;
7887;SDS011;3989;48.810;9.208;2023-09-12T13:20:58;6.63;;;5.80;;
7887;SDS011;3989;48.810;9.208;2023-09-12T13:23:25;6.78;;;6.00;;
7887;SDS011;3989;48.810;9.208;2023-09-12T13:25:51;7.05;;;6.25;;
7887;SDS011;3989;48.810;9.208;2023-09-12T13:28:19;7.15;;;5.82;;
7887;SDS011;3989;48.810;9.208;2023-09-12T13:30:47;7.80;;;5.95;;
7887;SDS011;3989;48.810;9.208;2023-09-12T13:33:14;6.82;;;6.03;;
7887;SDS011;3989;48.810;9.208;2023-09-12T13:35:41;6.78;;;6.18;;
7887;SDS011;3989;48.810;9.208;2023-09-12T13:38:08;7.57;;;5.80;;
7887;SDS011;3989;48.810;9.208;2023-09-12T13:40:36;7.78;;;5.82;;
7887;SDS011;3989;48.810;9.208;2023-09-12T13:43:04;8.15;;;5.88;;
7887;SDS011;3989;48.810;9.208;2023-09-12T13:45:32;6.75;;;6.05;;
7887;SDS011;3989;48.810;9.208;2023-09-12T13:48:02;6.40;;;5.95;;
7887;SDS011;3989;48.810;9.208;2023-09-12T13:50:30;6.78;;;6.00;;
7887;SDS011;3989;48.810;9.208;2023-09-12T13:52:57;8.75;;;5.93;;
7887;SDS011;3989;48.810;9.208;2023-09-12T13:55:24;6.93;;;6.07;;
7887;SDS011;3989;48.810;9.208;2023-09-12T13:57:51;8.25;;;6.40;;
7887;SDS011;3989;48.810;9.208;2023-09-12T14:00:18;6.70;;;6.05;;
7887;SDS011;3989;48.810;9.208;2023-09-12T14:02:44;7.82;;;6.05;;
7887;SDS011;3989;48.810;9.208;2023-09-12T14:05:12;6.65;;;6.15;;
7887;SDS011;3989;48.810;9.208;2023-09-12T14:07:39;7.05;;;6.35;;
7887;SDS011;3989;48.810;9.208;2023-09-12T14:10:06;8.70;;;6.20;;
7887;SDS011;3989;48.810;9.208;2023-09-12T14:12:38;6.55;;;6.00;;
7887;SDS011;3989;48.810;9.208;2023-09-12T14:15:05;10.38;;;6.30;;
7887;SDS011;3989;48.810;9.208;2023-09-12T14:17:32;7.25;;;6.30;;
7887;SDS011;3989;48.810;9.208;2023-09-12T14:19:59;8.27;;;6.28;;
7887;SDS011;3989;48.810;9.208;2023-09-12T14:22:27;10.32;;;6.72;;
7887;SDS011;3989;48.810;9.208;2023-09-12T14:24:54;7.85;;;6.22;;
7887;SDS011;3989;48.810;9.208;2023-09-12T14:27:21;6.90;;;6.30;;
7887;SDS011;3989;48.810;9.208;2023-09-12T14:29:47;7.18;;;6.47;;
7887;SDS011;3989;48.810;9.208;2023-09-12T14:32:15;7.38;;;6.18;;
7887;SDS011;3989;48.810;9.208;2023-09-12T14:34:42;6.70;;;6.00;;
7887;SDS011;3989;48.810;9.208;2023-09-12T14:37:10;8.20;;;6.93;;
7887;SDS011;3989;48.810;9.208;2023-09-12T14:39:38;8.32;;;7.50;;
7887;SDS011;3989;48.810;9.208;2023-09-12T14:42:05;6.90;;;6.22;;
7887;SDS011;3989;48.810;9.208;2023-09-12T14:44:33;7.78;;;6.85;;
7887;SDS011;3989;48.810;9.208;2023-09-12T14:47:00;6.72;;;6.22;;
7887;SDS011;3989;48.810;9.208;2023-09-12T14:49:27;7.05;;;6.35;;
7887;SDS011;3989;48.810;9.208;2023-09-12T14:51:53;10.75;;;6.68;;
7887;SDS011;3989;48.810;9.208;2023-09-12T14:54:20;12.68;;;6.70;;
7887;SDS011;3989;48.810;9.208;2023-09-12T14:56:49;6.82;;;6.20;;
7887;SDS011;3989;48.810;9.208;2023-09-12T14:59:16;7.45;;;5.97;;
7887;SDS011;3989;48.810;9.208;2023-09-12T15:01:43;6.43;;;5.82;;
7887;SDS011;3989;48.810;9.208;2023-09-12T15:04:09;6.50;;;6.00;;
7887;SDS011;3989;48.810;9.208;2023-09-12T15:06:37;7.78;;;6.25;;
7887;SDS011;3989;48.810;9.208;2023-09-12T15:09:03;7.93;;;6.32;;
7887;SDS011;3989;48.810;9.208;2023-09-12T15:11:30;9.13;;;6.63;;
7887;SDS011;3989;48.810;9.208;2023-09-12T15:13:58;9.02;;;6.18;;
7887;SDS011;3989;48.810;9.208;2023-09-12T15:16:25;8.65;;;6.38;;
7887;SDS011;3989;48.810;9.208;2023-09-12T15:18:52;7.22;;;6.55;;
7887;SDS011;3989;48.810;9.208;2023-09-12T15:21:19;6.93;;;6.30;;
7887;SDS011;3989;48.810;9.208;2023-09-12T15:23:45;7.45;;;5.80;;
7887;SDS011;3989;48.810;9.208;2023-09-12T15:26:12;7.13;;;6.43;;
7887;SDS011;3989;48.810;9.208;2023-09-12T15:28:39;9.52;;;6.80;;
7887;SDS011;3989;48.810;9.208;2023-09-12T15:31:07;6.65;;;6.05;;